Kempsey, United Kingdom
Current Conditions -  °F | °C
As of 6:50 AM on Saturday 25 Oct 2014 (Local Time) from EGBB Reporting Station
Clear Clear  
Wind Chill: 43°   Ceiling: Unl
Heat Index: 43°   Visibility: 6mi
Dew Point: 41°   Wind: 3mph
Humidity: 93%   Direction: NA
Pressure: 29.97"   Gusts: NA
Location:  52.14°N, 2.22°W
Report Text: EGBB 250550Z VRB03KT CAVOK 06/05 Q1015
Loading
Personal Weather Stations






























Interactive Weather Map New forecast layout! Learn more

10-Day Weather Forecast

Advertisements
Track Severe Weather on mobile